Portada
METAR-TAF:

METAR-TAF

Aeroports :

Bandar Lengeh, Iran

latitud: 26-35N, longitud: 054-50E, altitud: 14 m

Observació

L'informe es va fer fa 34 minuts, a les 00:00 UTC
Vent 10 kt del Est
Temperatura 33°C
Humitat 80%
Pressió 998 hPa
Visibilitat: 4000 m
calitja

METAR: OIBL 210000Z 09010KT 4000 HZ NSC 33/29 Q0998

Hora: 05:04 (00:34 UTC)


TAF: manca

Observacions i pronòstics meteorològics de més de 4000 aeroports (METAR i TAF).

Les estacions disponibles són els punts grocs i vermells al mapa.

Posi el ratolí al punt desitjat per veure el nom de l'estació.

Feu clic per veure les observacions i els pronòstics meteorològics.

Per canviar el mapa: feu clic els botons verds amb una creu de color negre per apropar; al botó verd amb un guió per allunyar la imatge; o en les fletxes verdes per a mapes adjacents.


METAR-TAF: